Main page
METAR-TAF:

METAR-TAF

Airports :

Kemi-Tornio Airport

Kemi, Finland

latitude: 65-47N, longitude: 024-35E, elevation: 15 m

Current weather observation

The report was made 11 minutes ago, at 00:50 UTC
Wind 6 kt from the South/Southwest
Temperature 0°C
Humidity 100%
Pressure 971 hPa
Visibility 10 km or more
Overcast at a height of 500 ft

METAR: EFKE 180050Z AUTO 21006KT 9999 OVC005 00/M00 Q0971

Time: 03:01 (01:01 UTC)

Forecast

The report was made 7 hours and 35 minutes ago, at 17:26 UTC
Forecast valid from 17 at 18 UTC to 17 at 21 UTC
Wind 9 kt from the South
Visibility 10 km or more
Few clouds at a height of 400 ft
Temporary
from 17 at 18 UTC to 17 at 21 UTC
Broken clouds at a height of 400 ft

TAF: EFKE 171726Z 1718/1721 19009KT 9999 FEW004 TEMPO 1718/1721 BKN004

Weather observations and forecasts of more than 4000 airports (METAR and TAF reports).

The available stations are represented by yellow and red dots on the map.

Hover mouse over dot to see the name of the station.

Then click to see weather observations and forecasts.

To change the map : click on the green buttons with a black cross to zoom in, on the green button with a dash to zoom out, or on the green arrows for adjacent maps.


METAR-TAF: